Rollinsford, New Hampshire
Current Conditions -  °F | °C
As of 4:02 AM on Wednesday 22 Oct 2014 (Local Time) from KDAW Reporting Station
Moderate Rain Moderate Rain  
Wind Chill: 43°   Ceiling: 600
Heat Index: 48°   Visibility: 2.5mi
Dew Point: 46°   Wind: 10mph
Humidity: 93%   Direction: 20°NNE
Pressure: 30.03"   Gusts: 20mph
Location:  43.24°N, 70.82°W
Report Text: KDAW 220802Z AUTO 02009G17KT 2 1/2SM RA BR OVC006 09/08 A3003 RMK AO2 CIG 004V009 P0003 T00890078
Loading
Personal Weather Stations






























Interactive Weather Map
Tropical Storm Tracking
New forecast layout! Learn more

10-Day Weather Forecast

Advertisements
Track Severe Weather on mobile